Time;durP1;ratioP1;P1;durP2;ratioP2;P2;SDS_P1;SDS_P2;PMS_P1;PMS_P2;Temp;Humidity;BMP_temperature;BMP_pressure;BME280_temperature;BME280_humidity;BME280_pressure;Samples;Min_cycle;Max_cycle;Signal;HPM_P1;HPM_P2
2021/12/24 14:05:27;;;;;;;2.08;1.45;;;14.40;76.40;;;;;;2299697;62;30128;-80
2021/12/24 14:08:08;;;;;;;2.65;1.50;;;14.40;75.20;;;;;;2280612;62;30290;-77
2021/12/24 14:10:34;;;;;;;2.90;1.15;;;14.40;76.50;;;;;;2283100;62;30494;-79
2021/12/24 14:13:07;;;;;;;2.63;1.10;;;14.50;77.00;;;;;;2276198;62;30774;-78
2021/12/24 14:15:46;;;;;;;4.80;1.30;;;14.50;77.60;;;;;;2290182;62;30104;-75
2021/12/24 14:23:29;;;;;;;1.17;1.10;;;14.70;78.80;;;;;;2289039;62;29970;-79
2021/12/24 14:25:59;;;;;;;1.38;1.20;;;14.80;78.90;;;;;;2290196;62;30216;-80
2021/12/24 14:28:25;;;;;;;1.60;1.20;;;14.90;78.90;;;;;;2282524;62;30192;-78
2021/12/24 14:31:03;;;;;;;3.42;1.35;;;14.90;78.90;;;;;;2282432;62;30221;-81
2021/12/24 14:33:38;;;;;;;1.08;1.05;;;14.90;78.50;;;;;;2287657;62;30450;-77
2021/12/24 14:36:07;;;;;;;1.30;1.20;;;15.00;78.80;;;;;;2282781;62;30279;-76
2021/12/24 14:38:33;;;;;;;1.60;0.90;;;15.00;78.80;;;;;;2282910;62;30202;-77
2021/12/24 14:40:59;;;;;;;3.03;1.60;;;15.10;78.80;;;;;;2290101;62;30204;-77
2021/12/24 14:43:25;;;;;;;2.05;1.02;;;15.10;78.70;;;;;;2289778;62;30903;-79
2021/12/24 14:45:52;;;;;;;1.88;1.58;;;15.10;78.60;;;;;;2282412;62;30742;-79
2021/12/24 14:48:26;;;;;;;2.30;1.17;;;15.20;78.60;;;;;;2282919;62;30040;-77
2021/12/24 14:50:59;;;;;;;2.92;1.27;;;15.10;79.30;;;;;;2281613;62;30196;-76
2021/12/24 14:53:29;;;;;;;1.48;1.30;;;15.10;78.60;;;;;;2276248;62;29964;-76
2021/12/24 14:56:08;;;;;;;1.85;1.35;;;15.10;78.50;;;;;;2282559;62;29960;-77
2021/12/24 14:58:45;;;;;;;1.38;1.00;;;15.10;78.20;;;;;;2282265;62;30318;-80
2021/12/24 15:01:11;;;;;;;2.45;1.40;;;15.10;78.00;;;;;;2275881;62;30314;-75
2021/12/24 15:03:42;;;;;;;1.60;1.50;;;15.20;78.30;;;;;;2289146;62;30149;-75
2021/12/24 15:06:29;;;;;;;1.65;1.45;;;15.20;78.20;;;;;;2275714;62;30150;-76
2021/12/24 15:09:28;;;;;;;3.38;1.30;;;15.20;77.50;;;;;;2283158;62;30110;-76
2021/12/24 15:11:55;;;;;;;5.22;1.80;;;15.20;78.00;;;;;;2283069;62;29906;-75
2021/12/24 15:14:26;;;;;;;2.97;1.50;;;15.30;77.90;;;;;;2275614;62;30172;-76
2021/12/24 15:16:55;;;;;;;2.13;1.52;;;15.30;77.80;;;;;;2284054;62;31137;-75
2021/12/24 15:19:21;;;;;;;2.45;1.48;;;15.20;77.70;;;;;;2270304;62;30529;-81
2021/12/24 15:21:47;;;;;;;2.08;1.52;;;15.10;77.80;;;;;;2276762;62;30838;-78
2021/12/24 15:24:14;;;;;;;1.48;1.38;;;15.10;78.00;;;;;;2283680;62;30144;-78
2021/12/24 15:26:44;;;;;;;2.75;1.60;;;15.10;77.80;;;;;;2275780;62;30283;-77
2021/12/24 15:29:12;;;;;;;2.78;1.55;;;15.10;78.00;;;;;;2276394;62;30218;-79
2021/12/24 15:31:38;;;;;;;1.80;1.52;;;15.10;77.80;;;;;;2282207;62;30144;-79
2021/12/24 15:34:05;;;;;;;2.92;1.38;;;15.10;77.70;;;;;;2273440;62;30144;-78
2021/12/24 15:36:31;;;;;;;1.60;1.40;;;15.20;77.70;;;;;;2276784;62;30169;-80
2021/12/24 15:38:57;;;;;;;1.67;1.23;;;15.20;77.90;;;;;;2269980;62;30331;-77
2021/12/24 15:41:23;;;;;;;2.03;1.40;;;15.30;78.30;;;;;;2269658;62;30070;-79
2021/12/24 15:43:49;;;;;;;2.25;1.67;;;15.30;78.30;;;;;;2283934;62;31125;-79
2021/12/24 15:46:15;;;;;;;3.75;1.58;;;15.30;78.30;;;;;;2276478;62;30019;-77
2021/12/24 15:48:41;;;;;;;2.10;1.80;;;15.20;78.50;;;;;;2283603;62;30305;-73
2021/12/24 15:51:07;;;;;;;2.92;1.60;;;15.30;78.40;;;;;;2283027;62;30093;-74
2021/12/24 15:53:34;;;;;;;3.38;1.67;;;15.30;78.50;;;;;;2272925;62;32310;-73
2021/12/24 15:56:04;;;;;;;3.33;1.70;;;15.30;78.40;;;;;;2283865;62;30169;-73
2021/12/24 15:58:31;;;;;;;3.53;1.65;;;15.30;78.10;;;;;;2270348;62;30220;-74
2021/12/24 16:00:57;;;;;;;1.92;1.45;;;15.40;77.90;;;;;;2276371;62;30261;-72
2021/12/24 16:03:23;;;;;;;2.42;1.60;;;15.40;77.60;;;;;;2276534;62;30199;-74
2021/12/24 16:05:49;;;;;;;3.88;1.30;;;15.40;77.40;;;;;;2276560;62;31664;-73
2021/12/24 16:08:18;;;;;;;5.03;1.98;;;15.50;77.30;;;;;;2283681;62;30111;-77
2021/12/24 16:10:49;;;;;;;1.95;1.77;;;15.50;77.00;;;;;;2276574;62;30179;-79
2021/12/24 16:13:17;;;;;;;1.67;1.58;;;15.60;76.70;;;;;;2283985;62;30119;-82
2021/12/24 16:15:46;;;;;;;1.50;1.40;;;15.70;76.50;;;;;;2270101;62;30273;-82
2021/12/24 16:18:15;;;;;;;3.83;1.60;;;15.80;76.30;;;;;;2276946;62;30342;-82
2021/12/24 16:20:42;;;;;;;1.50;1.40;;;15.90;76.00;;;;;;2276507;62;30292;-81
2021/12/24 16:23:08;;;;;;;3.00;1.45;;;16.00;75.90;;;;;;2283936;62;30557;-79
2021/12/24 16:25:34;;;;;;;1.50;1.40;;;16.00;75.60;;;;;;2283847;62;30546;-79
2021/12/24 16:28:02;;;;;;;2.78;1.50;;;16.10;75.50;;;;;;2282982;62;30066;-77
2021/12/24 16:30:28;;;;;;;1.50;1.40;;;16.10;75.30;;;;;;2283503;62;30011;-76
2021/12/24 16:32:54;;;;;;;1.98;1.58;;;16.20;75.10;;;;;;2276483;62;30192;-75
2021/12/24 16:35:21;;;;;;;1.63;1.52;;;16.30;74.90;;;;;;2283614;62;30369;-75
2021/12/24 16:37:47;;;;;;;2.35;1.70;;;16.30;74.70;;;;;;2283825;62;30167;-77
2021/12/24 16:40:18;;;;;;;1.58;1.48;;;16.30;74.60;;;;;;2276527;62;30084;-80
2021/12/24 16:42:52;;;;;;;1.30;1.20;;;16.40;74.50;;;;;;2269503;62;30233;-81
2021/12/24 16:45:22;;;;;;;1.35;1.35;;;16.40;74.40;;;;;;2276157;62;30393;-79
2021/12/24 16:47:48;;;;;;;2.03;1.60;;;16.40;74.20;;;;;;2271847;62;30023;-81
2021/12/24 16:50:15;;;;;;;1.50;1.40;;;16.40;74.60;;;;;;2283821;62;30293;-82
2021/12/24 16:52:41;;;;;;;1.70;1.48;;;16.40;74.10;;;;;;2275842;62;30653;-81
2021/12/24 16:55:07;;;;;;;1.52;1.42;;;16.40;74.10;;;;;;2283881;62;30170;-80
2021/12/24 16:57:33;;;;;;;1.48;1.38;;;16.40;74.00;;;;;;2283709;62;30074;-81
2021/12/24 17:00:05;;;;;;;1.63;1.52;;;16.50;74.00;;;;;;2283633;62;30309;-81
2021/12/24 17:02:31;;;;;;;1.92;1.50;;;16.40;73.90;;;;;;2283386;62;30141;-79
2021/12/24 17:04:57;;;;;;;3.33;1.67;;;16.50;73.80;;;;;;2282211;62;30087;-79
2021/12/24 17:07:22;;;;;;;1.58;1.48;;;16.50;73.80;;;;;;2281988;62;30406;-79
2021/12/24 17:09:48;;;;;;;1.33;1.33;;;16.50;73.70;;;;;;2283566;62;30047;-76
2021/12/24 17:12:16;;;;;;;2.28;1.70;;;16.50;73.70;;;;;;2276392;62;30369;-76
2021/12/24 17:14:44;;;;;;;3.30;1.50;;;16.50;73.70;;;;;;2283865;62;30764;-76
2021/12/24 17:17:12;;;;;;;1.40;1.30;;;16.50;73.70;;;;;;2283515;62;30085;-76
2021/12/24 17:19:38;;;;;;;1.60;1.50;;;16.50;73.70;;;;;;2262991;62;30211;-76
2021/12/24 17:22:04;;;;;;;2.10;1.80;;;16.50;73.60;;;;;;2283801;62;31099;-78
2021/12/24 17:24:30;;;;;;;1.45;1.35;;;16.50;73.60;;;;;;2283644;62;30731;-79
2021/12/24 17:26:57;;;;;;;2.17;1.67;;;16.50;73.50;;;;;;2276392;62;30652;-77
2021/12/24 17:29:25;;;;;;;3.22;1.48;;;16.50;73.50;;;;;;2269483;62;30337;-76
2021/12/24 17:31:51;;;;;;;1.52;1.42;;;16.50;73.40;;;;;;2269354;62;31000;-76
2021/12/24 17:34:19;;;;;;;1.70;1.60;;;16.50;73.40;;;;;;2275791;62;30285;-75
2021/12/24 17:36:45;;;;;;;1.73;1.50;;;16.50;73.40;;;;;;2283655;62;30269;-78
2021/12/24 17:39:12;;;;;;;1.58;1.42;;;16.50;73.30;;;;;;2275839;62;30177;-75
2021/12/24 17:41:38;;;;;;;1.67;1.58;;;16.50;73.30;;;;;;2275984;62;30202;-75
2021/12/24 17:44:04;;;;;;;1.67;1.30;;;16.50;73.20;;;;;;2276626;62;30026;-84
2021/12/24 17:46:30;;;;;;;2.67;1.60;;;16.50;73.20;;;;;;2276909;62;30144;-81
2021/12/24 17:48:56;;;;;;;1.83;1.48;;;16.50;73.20;;;;;;2281341;62;30014;-80
2021/12/24 17:51:25;;;;;;;1.70;1.60;;;16.60;73.20;;;;;;2269005;62;31041;-83
2021/12/24 17:53:51;;;;;;;4.82;2.10;;;16.50;73.00;;;;;;2275896;62;30190;-86
2021/12/24 17:56:17;;;;;;;9.73;2.35;;;16.40;72.90;;;;;;2276337;62;30273;-82
2021/12/24 17:58:43;;;;;;;2.40;2.20;;;16.30;73.00;;;;;;2276125;62;29975;-82
2021/12/24 18:01:09;;;;;;;2.95;2.00;;;16.30;73.30;;;;;;2276273;62;30981;-91
2021/12/24 18:03:35;;;;;;;2.42;1.83;;;16.30;73.50;;;;;;2276547;62;29899;-90
2021/12/24 18:06:02;;;;;;;3.20;1.88;;;16.30;73.70;;;;;;2276667;62;30514;-90
2021/12/24 18:08:27;;;;;;;3.50;1.92;;;16.30;73.70;;;;;;2276554;62;30224;-84
2021/12/24 18:10:54;;;;;;;2.00;1.80;;;16.40;73.80;;;;;;2269157;62;30806;-90
2021/12/24 18:13:29;;;;;;;2.80;1.70;;;16.50;73.80;;;;;;2276292;62;30678;-81
2021/12/24 18:15:58;;;;;;;1.63;1.52;;;16.50;73.70;;;;;;2276287;62;30145;-82
2021/12/24 18:18:24;;;;;;;17.67;2.92;;;16.60;73.60;;;;;;2275968;62;30223;-79
2021/12/24 18:20:50;;;;;;;2.75;1.83;;;16.70;73.60;;;;;;2261627;62;30868;-76
2021/12/24 18:23:16;;;;;;;4.20;1.85;;;16.70;73.50;;;;;;2275749;62;30132;-80
2021/12/24 18:25:42;;;;;;;2.35;1.60;;;16.80;73.40;;;;;;2268759;62;30006;-81
2021/12/24 18:28:08;;;;;;;2.00;1.65;;;16.90;73.20;;;;;;2276054;62;30041;-80
2021/12/24 18:30:34;;;;;;;4.55;1.65;;;17.10;73.20;;;;;;2276225;62;30117;-80
2021/12/24 18:33:00;;;;;;;3.50;1.58;;;17.10;73.00;;;;;;2280045;62;30556;-83
2021/12/24 18:35:26;;;;;;;3.42;1.67;;;17.20;72.90;;;;;;2284093;62;30168;-84
2021/12/24 18:38:10;;;;;;;1.58;1.48;;;17.30;72.70;;;;;;2284274;62;30022;-83
2021/12/24 18:40:46;;;;;;;1.60;1.15;;;17.40;72.60;;;;;;2285680;62;30134;-84
2021/12/24 18:43:14;;;;;;;1.45;1.35;;;17.40;72.20;;;;;;2279107;62;30158;-84
2021/12/24 18:45:41;;;;;;;1.30;1.20;;;17.40;72.30;;;;;;2283939;62;29922;-84
2021/12/24 18:48:07;;;;;;;1.30;1.20;;;17.40;72.20;;;;;;2276524;62;30110;-84
2021/12/24 18:50:34;;;;;;;1.52;1.23;;;17.40;72.10;;;;;;2270455;62;30204;-83
2021/12/24 18:53:00;;;;;;;1.25;1.15;;;17.50;72.10;;;;;;2277261;62;30225;-83
2021/12/24 18:55:26;;;;;;;1.20;1.10;;;17.50;72.00;;;;;;2277930;62;30233;-84
2021/12/24 18:57:52;;;;;;;1.02;1.02;;;17.50;72.00;;;;;;2285452;62;29973;-83
2021/12/24 19:00:19;;;;;;;1.17;0.75;;;17.50;71.90;;;;;;2271400;62;30896;-84
2021/12/24 19:02:45;;;;;;;1.20;1.10;;;17.50;72.00;;;;;;2277821;62;30078;-83
2021/12/24 19:05:11;;;;;;;1.58;1.20;;;17.50;72.00;;;;;;2284697;62;30277;-84
2021/12/24 19:07:37;;;;;;;1.85;1.05;;;17.50;72.00;;;;;;2285361;62;30197;-85
2021/12/24 19:10:04;;;;;;;1.35;1.20;;;17.40;72.00;;;;;;2277745;62;30113;-82
2021/12/24 19:12:30;;;;;;;1.10;0.90;;;17.40;72.00;;;;;;2278055;62;30082;-84
2021/12/24 19:14:58;;;;;;;1.05;1.00;;;17.40;72.00;;;;;;2285231;62;29940;-82
2021/12/24 19:17:24;;;;;;;0.95;0.90;;;17.40;72.00;;;;;;2284994;62;30056;-83
2021/12/24 19:19:50;;;;;;;2.15;0.88;;;17.40;72.00;;;;;;2285158;62;30239;-74
2021/12/24 19:22:16;;;;;;;14.40;2.88;;;17.40;72.00;;;;;;2284889;62;30099;-73
2021/12/24 19:24:41;;;;;;;1.08;0.95;;;17.40;72.10;;;;;;2270265;62;30248;-75
2021/12/24 19:27:07;;;;;;;1.27;0.85;;;17.40;72.00;;;;;;2276091;62;30178;-75
2021/12/24 19:29:34;;;;;;;2.97;1.00;;;17.40;71.90;;;;;;2284290;62;30108;-76
2021/12/24 19:32:02;;;;;;;1.90;1.00;;;17.40;71.80;;;;;;2283965;62;30165;-75
2021/12/24 19:34:28;;;;;;;1.10;0.90;;;17.50;71.80;;;;;;2283707;62;30229;-77
2021/12/24 19:36:55;;;;;;;1.20;0.90;;;17.50;71.60;;;;;;2276725;62;30569;-76
2021/12/24 19:39:21;;;;;;;1.52;1.05;;;17.50;71.60;;;;;;2284151;62;30868;-77
2021/12/24 19:41:46;;;;;;;1.45;0.90;;;17.60;71.50;;;;;;2284026;62;30246;-75
2021/12/24 19:44:12;;;;;;;1.52;0.80;;;17.60;71.50;;;;;;2283650;62;30227;-75
2021/12/24 19:46:38;;;;;;;0.60;0.60;;;17.60;71.40;;;;;;2276026;62;30265;-76
2021/12/24 19:49:04;;;;;;;5.57;0.90;;;17.60;71.40;;;;;;2283798;62;30353;-75
2021/12/24 19:51:31;;;;;;;0.90;0.90;;;17.60;71.30;;;;;;2276581;62;30846;-78
2021/12/24 19:53:57;;;;;;;1.10;0.70;;;17.60;71.30;;;;;;2277199;62;30593;-77
2021/12/24 19:56:23;;;;;;;0.90;0.70;;;17.60;71.20;;;;;;2268708;62;29998;-78
2021/12/24 19:58:49;;;;;;;1.00;0.70;;;17.60;71.10;;;;;;2275448;62;30147;-78
2021/12/24 20:01:15;;;;;;;0.77;0.77;;;17.70;71.20;;;;;;2283470;62;30186;-78
2021/12/24 20:03:41;;;;;;;2.05;0.93;;;17.70;71.20;;;;;;2276501;62;30741;-79
2021/12/24 20:06:16;;;;;;;1.35;1.25;;;17.70;71.20;;;;;;2283975;62;30225;-77
2021/12/24 20:08:44;;;;;;;1.02;0.75;;;17.70;71.20;;;;;;2273406;62;30300;-77
2021/12/24 20:11:10;;;;;;;0.90;0.90;;;17.70;71.10;;;;;;2283732;62;29989;-77
2021/12/24 20:13:36;;;;;;;0.70;0.65;;;17.70;71.10;;;;;;2278136;62;30013;-78
2021/12/24 20:16:04;;;;;;;0.45;0.45;;;17.60;71.00;;;;;;2261824;62;30220;-79
2021/12/24 20:18:30;;;;;;;1.73;0.98;;;17.60;71.00;;;;;;2275601;62;30114;-79
2021/12/24 20:20:56;;;;;;;1.50;1.00;;;17.60;71.00;;;;;;2275606;62;30452;-79
2021/12/24 20:23:22;;;;;;;1.60;0.90;;;17.60;71.00;;;;;;2280494;62;30631;-77
2021/12/24 20:25:48;;;;;;;0.82;0.68;;;17.60;71.00;;;;;;2283953;62;30370;-78
2021/12/24 20:28:14;;;;;;;1.20;0.65;;;17.60;71.00;;;;;;2283655;62;30188;-76
2021/12/24 20:30:40;;;;;;;1.00;0.70;;;17.60;70.90;;;;;;2283914;62;30052;-79
2021/12/24 20:33:07;;;;;;;0.70;0.65;;;17.60;71.00;;;;;;2269534;62;30060;-80
2021/12/24 20:35:33;;;;;;;0.70;0.70;;;17.60;71.00;;;;;;2269708;62;30297;-78
2021/12/24 20:37:59;;;;;;;1.83;0.85;;;17.60;70.90;;;;;;2276251;62;29985;-79
2021/12/24 20:40:25;;;;;;;0.57;0.57;;;17.60;71.00;;;;;;2269252;62;30013;-80
2021/12/24 20:42:52;;;;;;;0.93;0.60;;;17.60;71.00;;;;;;2283671;62;30180;-77
2021/12/24 20:45:18;;;;;;;0.63;0.63;;;17.60;71.00;;;;;;2261876;62;30120;-78
2021/12/24 20:47:45;;;;;;;0.82;0.82;;;17.60;71.00;;;;;;2275437;62;30220;-76
2021/12/24 20:50:15;;;;;;;0.73;0.73;;;17.60;71.00;;;;;;2268163;62;30198;-77
2021/12/24 20:52:42;;;;;;;0.75;0.68;;;17.60;71.00;;;;;;2275733;62;30005;-77
2021/12/24 20:55:08;;;;;;;0.68;0.63;;;17.60;71.00;;;;;;2268169;62;30056;-78
2021/12/24 20:57:34;;;;;;;1.02;0.85;;;17.60;71.10;;;;;;2273760;62;30191;-75
2021/12/24 21:00:00;;;;;;;1.55;0.60;;;17.50;71.00;;;;;;2283790;62;30188;-79
2021/12/24 21:02:27;;;;;;;1.35;0.68;;;17.60;71.00;;;;;;2283184;62;30013;-75
2021/12/24 21:04:53;;;;;;;0.85;0.70;;;17.60;71.10;;;;;;2271718;62;30238;-75
2021/12/24 21:07:18;;;;;;;1.38;0.85;;;17.60;71.80;;;;;;2279944;62;30111;-76
2021/12/24 21:09:44;;;;;;;1.27;0.80;;;17.60;71.00;;;;;;2276722;62;30297;-77
2021/12/24 21:12:10;;;;;;;3.45;0.70;;;17.50;71.30;;;;;;2277405;62;29927;-76
2021/12/24 21:14:36;;;;;;;1.08;0.77;;;17.50;71.00;;;;;;2276241;62;30206;-76
2021/12/24 21:17:04;;;;;;;2.72;1.00;;;17.60;71.40;;;;;;2268809;62;30864;-77
2021/12/24 21:19:30;;;;;;;0.98;0.60;;;17.60;71.00;;;;;;2276376;62;30653;-78
2021/12/24 21:21:57;;;;;;;2.20;0.85;;;17.50;70.90;;;;;;2276416;62;30292;-76
2021/12/24 21:24:23;;;;;;;1.15;0.85;;;17.50;70.90;;;;;;2276827;62;29907;-78
2021/12/24 21:26:49;;;;;;;1.58;1.00;;;17.50;70.90;;;;;;2284695;62;30922;-77
2021/12/24 21:29:15;;;;;;;0.60;0.60;;;17.60;70.90;;;;;;2284771;62;30172;-76
2021/12/24 21:31:41;;;;;;;1.85;0.90;;;17.60;70.90;;;;;;2284517;62;29998;-76
2021/12/24 21:34:07;;;;;;;0.88;0.80;;;17.60;70.90;;;;;;2276979;62;30182;-75
2021/12/24 21:36:33;;;;;;;0.85;0.70;;;17.50;70.80;;;;;;2277216;62;30052;-76
2021/12/24 21:38:59;;;;;;;0.80;0.68;;;17.50;70.80;;;;;;2284371;62;30612;-75
2021/12/24 21:41:25;;;;;;;2.40;0.95;;;17.50;70.80;;;;;;2284540;62;30089;-76
2021/12/24 21:43:52;;;;;;;0.65;0.65;;;17.50;70.80;;;;;;2276621;62;30048;-75
2021/12/24 21:46:18;;;;;;;1.27;1.08;;;17.50;71.50;;;;;;2284511;62;31862;-74
2021/12/24 21:48:43;;;;;;;1.38;0.70;;;17.50;70.80;;;;;;2283225;62;30939;-74
2021/12/24 21:51:09;;;;;;;3.45;0.80;;;17.50;70.80;;;;;;2282604;62;30137;-75
2021/12/24 21:53:36;;;;;;;1.60;0.65;;;17.50;70.80;;;;;;2281970;62;30257;-74
2021/12/24 21:56:03;;;;;;;1.38;0.80;;;17.50;70.80;;;;;;2282110;62;30253;-75
2021/12/24 21:58:29;;;;;;;1.55;0.90;;;17.50;70.80;;;;;;2283169;62;30562;-75
2021/12/24 22:00:58;;;;;;;0.77;0.77;;;17.60;70.80;;;;;;2276143;62;29978;-76
2021/12/24 22:08:39;;;;;;;1.05;0.60;;;17.60;70.60;;;;;;2273182;62;30740;-78
2021/12/24 22:11:17;;;;;;;1.63;0.68;;;17.60;70.60;;;;;;2268002;62;30632;-77
2021/12/24 22:13:43;;;;;;;0.57;0.57;;;17.60;70.50;;;;;;2262704;62;30280;-76
2021/12/24 22:16:10;;;;;;;0.90;0.52;;;17.60;70.50;;;;;;2252471;62;30169;-75
2021/12/24 22:18:49;;;;;;;1.10;0.57;;;17.70;70.50;;;;;;2259646;62;30934;-76
2021/12/24 22:21:15;;;;;;;0.85;0.47;;;17.70;70.10;;;;;;2265926;62;32846;-75
2021/12/24 22:23:42;;;;;;;0.75;0.75;;;17.70;70.20;;;;;;2258911;62;30345;-77
2021/12/24 22:26:08;;;;;;;0.57;0.57;;;17.70;70.20;;;;;;2265579;62;30306;-78
2021/12/24 22:28:34;;;;;;;1.33;0.80;;;17.70;70.10;;;;;;2266656;62;30083;-77
2021/12/24 22:31:00;;;;;;;1.58;0.63;;;17.70;70.10;;;;;;2260845;62;29976;-77
2021/12/24 22:33:26;;;;;;;1.08;0.70;;;17.70;70.00;;;;;;2260048;62;30147;-75
2021/12/24 22:35:52;;;;;;;0.68;0.60;;;17.70;70.00;;;;;;2268123;62;30105;-76
2021/12/24 22:38:18;;;;;;;0.57;0.52;;;17.70;69.90;;;;;;2260793;62;30521;-75
2021/12/24 22:40:45;;;;;;;1.85;0.90;;;17.70;70.00;;;;;;2267785;62;30250;-75
2021/12/24 22:43:11;;;;;;;1.35;0.80;;;17.70;70.00;;;;;;2260894;62;30284;-75
2021/12/24 22:45:39;;;;;;;0.68;0.50;;;17.70;69.90;;;;;;2267983;62;30238;-75
2021/12/24 22:48:14;;;;;;;0.75;0.70;;;17.70;69.90;;;;;;2260638;62;29980;-76
2021/12/24 22:50:43;;;;;;;0.88;0.60;;;17.70;69.80;;;;;;2260524;62;30211;-76
2021/12/24 22:53:09;;;;;;;0.85;0.55;;;17.70;69.90;;;;;;2267919;62;30013;-76
2021/12/24 22:55:35;;;;;;;0.75;0.75;;;17.60;69.80;;;;;;2260251;62;30314;-75
2021/12/24 22:58:04;;;;;;;0.43;0.43;;;17.60;69.80;;;;;;2260436;62;30330;-76
2021/12/24 23:00:42;;;;;;;1.35;0.50;;;17.60;69.80;;;;;;2254189;62;30099;-77
2021/12/24 23:03:15;;;;;;;0.98;0.60;;;17.70;69.80;;;;;;2261135;62;30253;-75
2021/12/24 23:05:41;;;;;;;0.80;0.80;;;17.60;69.80;;;;;;2273796;62;30203;-75
2021/12/24 23:08:10;;;;;;;1.38;0.77;;;17.60;69.90;;;;;;2275469;62;30143;-75
2021/12/24 23:10:40;;;;;;;0.73;0.50;;;17.60;69.90;;;;;;2268717;62;30380;-76
2021/12/24 23:13:06;;;;;;;0.65;0.63;;;17.60;69.80;;;;;;2268488;62;30102;-75
2021/12/24 23:15:32;;;;;;;0.88;0.47;;;17.60;69.80;;;;;;2268313;62;30742;-76
2021/12/24 23:17:58;;;;;;;0.90;0.82;;;17.60;69.80;;;;;;2275748;62;30083;-75
2021/12/24 23:20:25;;;;;;;1.75;0.73;;;17.60;69.80;;;;;;2275901;62;30155;-75
2021/12/24 23:22:51;;;;;;;2.28;0.70;;;17.60;69.80;;;;;;2275611;62;30415;-77
2021/12/24 23:25:17;;;;;;;1.42;0.45;;;17.60;69.80;;;;;;2268442;62;30343;-77
2021/12/24 23:27:45;;;;;;;1.45;0.45;;;17.60;69.80;;;;;;2276005;62;30030;-77
2021/12/24 23:30:12;;;;;;;1.15;0.73;;;17.60;69.80;;;;;;2275013;62;30112;-77
2021/12/24 23:32:38;;;;;;;5.30;1.25;;;17.60;69.80;;;;;;2274349;62;30285;-75
2021/12/24 23:35:04;;;;;;;2.25;0.73;;;17.60;69.90;;;;;;2268503;62;30563;-74
2021/12/24 23:37:30;;;;;;;1.23;0.75;;;17.60;69.90;;;;;;2275337;62;30290;-76
2021/12/24 23:40:00;;;;;;;1.42;0.73;;;17.50;69.70;;;;;;2274625;62;30141;-75
2021/12/24 23:42:29;;;;;;;2.42;1.20;;;17.60;69.70;;;;;;2269140;62;30207;-74
2021/12/24 23:45:09;;;;;;;16.08;6.72;;;17.60;69.70;;;;;;2275852;62;30918;-76
